createdAt,value
2023-03-29T00:00:21.203Z,42.93
2023-03-29T00:02:47.591Z,43.11
2023-03-29T00:05:14.703Z,43.15
2023-03-29T00:07:40.472Z,43.16
2023-03-29T00:10:09.099Z,42.83
2023-03-29T00:12:36.234Z,42.90
2023-03-29T00:15:03.340Z,43.05
2023-03-29T00:17:29.478Z,43.11
2023-03-29T00:19:55.298Z,42.97
2023-03-29T00:22:21.186Z,42.87
2023-03-29T00:24:48.193Z,42.99
2023-03-29T00:27:15.733Z,43.19
2023-03-29T00:29:41.488Z,42.69
2023-03-29T00:32:07.292Z,42.92
2023-03-29T00:34:35.310Z,43.02
2023-03-29T00:37:01.941Z,42.87
2023-03-29T00:39:28.727Z,43.14
2023-03-29T00:41:54.490Z,42.64
2023-03-29T00:44:58.116Z,42.99
2023-03-29T00:47:33.508Z,42.77
2023-03-29T00:50:02.901Z,43.10
2023-03-29T00:52:31.275Z,43.02
2023-03-29T00:54:59.319Z,42.79
2023-03-29T00:57:27.746Z,42.85
2023-03-29T00:59:53.425Z,42.92
2023-03-29T01:02:22.019Z,42.94
2023-03-29T01:04:57.105Z,43.14
2023-03-29T01:07:29.944Z,43.03
2023-03-29T01:10:04.972Z,43.09
2023-03-29T01:12:35.186Z,43.06
2023-03-29T01:15:03.708Z,43.08
2023-03-29T01:17:30.732Z,43.16
2023-03-29T01:20:09.828Z,43.20
2023-03-29T01:23:16.112Z,42.93
2023-03-29T01:25:56.290Z,43.10
2023-03-29T01:28:27.579Z,43.19
2023-03-29T01:30:58.920Z,43.15
2023-03-29T01:33:27.464Z,43.12
2023-03-29T01:35:56.752Z,43.17
2023-03-29T01:38:30.415Z,42.95
2023-03-29T01:40:56.146Z,43.04
2023-03-29T01:43:27.247Z,43.16
2023-03-29T01:46:01.218Z,43.13
2023-03-29T01:48:34.551Z,42.86
2023-03-29T01:51:06.332Z,42.93
2023-03-29T01:53:38.720Z,42.93
2023-03-29T01:56:11.635Z,42.95
2023-03-29T01:58:41.929Z,42.87
2023-03-29T02:01:09.582Z,42.92
2023-03-29T02:03:41.462Z,43.06
2023-03-29T02:06:10.426Z,42.78
2023-03-29T02:08:37.947Z,42.95
2023-03-29T02:11:04.533Z,43.17
2023-03-29T02:13:31.039Z,43.13
2023-03-29T02:15:59.144Z,43.03
2023-03-29T02:18:25.330Z,42.95
2023-03-29T02:20:51.555Z,42.84
2023-03-29T02:23:33.392Z,43.12
2023-03-29T02:25:59.623Z,42.89
2023-03-29T02:28:26.189Z,43.19
2023-03-29T02:30:56.848Z,42.98
2023-03-29T02:33:26.654Z,42.96
2023-03-29T02:35:58.246Z,43.04
2023-03-29T02:38:25.671Z,42.83
2023-03-29T02:40:52.128Z,43.17
2023-03-29T02:43:19.153Z,43.08
2023-03-29T02:45:45.167Z,43.03
2023-03-29T02:48:12.825Z,43.33
2023-03-29T02:50:39.835Z,43.17
2023-03-29T02:53:10.866Z,43.08
2023-03-29T02:55:38.176Z,43.24
2023-03-29T02:58:07.585Z,43.03
2023-03-29T03:00:36.243Z,43.18
2023-03-29T03:03:03.164Z,42.99
2023-03-29T03:05:28.826Z,43.14
2023-03-29T03:07:54.478Z,43.16
2023-03-29T03:10:20.115Z,43.23
2023-03-29T03:12:45.856Z,43.23
2023-03-29T03:15:12.641Z,43.28
2023-03-29T03:17:39.102Z,43.26
2023-03-29T03:20:11.771Z,43.11
2023-03-29T03:22:40.440Z,43.19
2023-03-29T03:25:06.458Z,43.20
2023-03-29T03:27:33.214Z,43.21
2023-03-29T03:29:59.174Z,42.97
2023-03-29T03:32:24.824Z,43.11
2023-03-29T03:34:50.833Z,43.03
2023-03-29T03:37:17.329Z,42.98
2023-03-29T03:39:42.968Z,42.94
2023-03-29T03:42:08.737Z,43.19
2023-03-29T03:44:34.462Z,42.97
2023-03-29T03:47:00.135Z,42.99
2023-03-29T03:49:25.834Z,43.20
2023-03-29T03:51:52.700Z,42.99
2023-03-29T03:54:18.421Z,43.08
2023-03-29T03:56:44.060Z,43.20
2023-03-29T03:59:10.115Z,43.09
2023-03-29T04:01:36.979Z,43.16
2023-03-29T04:04:02.757Z,43.11
2023-03-29T04:06:29.757Z,43.09
2023-03-29T04:08:55.401Z,43.11
2023-03-29T04:11:21.051Z,43.11
2023-03-29T04:13:46.678Z,43.17
2023-03-29T04:16:12.382Z,43.49
2023-03-29T04:18:38.198Z,43.12
2023-03-29T04:21:04.288Z,43.12
2023-03-29T04:23:30.171Z,43.41
2023-03-29T04:25:55.940Z,43.31
2023-03-29T04:28:21.630Z,43.05
2023-03-29T04:30:48.207Z,43.12
2023-03-29T04:33:13.987Z,43.21
2023-03-29T04:35:39.768Z,43.00
2023-03-29T04:38:09.233Z,43.23
2023-03-29T04:40:35.291Z,43.03
2023-03-29T04:43:01.551Z,43.00
2023-03-29T04:45:27.953Z,42.98
2023-03-29T04:47:58.785Z,43.05
2023-03-29T04:50:24.696Z,43.08
2023-03-29T04:52:50.602Z,43.12
2023-03-29T04:55:16.261Z,43.01
2023-03-29T04:57:43.997Z,43.18
2023-03-29T05:00:14.584Z,43.35
2023-03-29T05:02:42.234Z,43.40
2023-03-29T05:05:08.277Z,43.04
2023-03-29T05:07:34.743Z,43.27
2023-03-29T05:10:00.540Z,43.16
2023-03-29T05:12:26.190Z,43.24
2023-03-29T05:14:52.194Z,43.27
2023-03-29T05:17:17.829Z,43.35
2023-03-29T05:19:43.486Z,43.13
2023-03-29T05:22:09.155Z,43.23
2023-03-29T05:24:34.821Z,43.14
2023-03-29T05:27:00.634Z,43.31
2023-03-29T05:29:26.344Z,43.23
2023-03-29T05:31:52.334Z,43.08
2023-03-29T05:34:18.181Z,43.34
2023-03-29T05:36:44.868Z,43.19
2023-03-29T05:39:10.685Z,42.97
2023-03-29T05:41:36.491Z,43.25
2023-03-29T05:44:02.146Z,43.08
2023-03-29T05:46:27.868Z,43.10
2023-03-29T05:48:53.588Z,43.39
2023-03-29T05:51:23.310Z,43.00
2023-03-29T05:53:50.489Z,43.27
2023-03-29T05:56:16.647Z,43.30
2023-03-29T05:58:42.435Z,42.76
2023-03-29T06:01:16.953Z,42.67
2023-03-29T06:03:43.188Z,43.25
2023-03-29T06:06:09.432Z,43.45
2023-03-29T06:08:35.441Z,43.49
2023-03-29T06:11:05.434Z,43.57
2023-03-29T06:13:32.676Z,43.35
2023-03-29T06:15:58.748Z,43.24
2023-03-29T06:18:24.941Z,43.48
2023-03-29T06:20:51.498Z,43.28
2023-03-29T06:23:18.943Z,43.55
2023-03-29T06:25:44.937Z,43.16
2023-03-29T06:28:11.352Z,43.44
2023-03-29T06:30:37.743Z,43.54
2023-03-29T06:33:06.243Z,43.52
2023-03-29T06:35:34.329Z,43.24
2023-03-29T06:38:00.663Z,43.45
2023-03-29T06:40:26.547Z,43.50
2023-03-29T06:42:57.114Z,43.40
2023-03-29T06:45:26.764Z,43.74
2023-03-29T06:47:53.929Z,43.38
2023-03-29T06:54:57.595Z,43.34
2023-03-29T06:57:23.462Z,43.26
2023-03-29T06:59:49.163Z,43.32
2023-03-29T07:02:15.703Z,43.25
2023-03-29T07:04:41.865Z,43.38
2023-03-29T07:07:18.800Z,43.40
2023-03-29T07:09:45.686Z,43.17
2023-03-29T07:12:11.605Z,43.18
2023-03-29T07:14:37.269Z,43.46
2023-03-29T07:17:03.400Z,43.43
2023-03-29T07:19:29.466Z,43.28
2023-03-29T07:21:55.494Z,43.23
2023-03-29T07:24:21.526Z,43.23
2023-03-29T07:27:00.099Z,43.18
2023-03-29T07:29:28.694Z,43.28
2023-03-29T07:31:55.461Z,43.42
2023-03-29T07:34:21.809Z,43.47
2023-03-29T07:36:47.487Z,43.35
2023-03-29T07:39:14.564Z,43.32
2023-03-29T07:41:40.434Z,43.24
2023-03-29T07:44:08.301Z,43.46
2023-03-29T07:46:35.711Z,43.20
2023-03-29T07:49:02.109Z,43.39
2023-03-29T07:51:27.774Z,43.70
2023-03-29T07:53:53.455Z,43.26
2023-03-29T07:56:19.706Z,43.53
2023-03-29T07:58:45.770Z,43.42
2023-03-29T08:01:16.389Z,43.54
2023-03-29T08:03:43.727Z,43.53
2023-03-29T08:06:09.425Z,43.42
2023-03-29T08:08:35.803Z,43.47
2023-03-29T08:11:01.829Z,43.47
2023-03-29T08:13:27.675Z,43.57
2023-03-29T08:15:53.320Z,43.41
2023-03-29T08:18:19.046Z,43.59
2023-03-29T08:20:44.713Z,43.23
2023-03-29T08:23:10.586Z,43.71
2023-03-29T08:25:36.434Z,43.68
2023-03-29T08:28:02.134Z,43.71
2023-03-29T08:30:27.814Z,43.90
2023-03-29T08:32:55.322Z,44.13
2023-03-29T08:35:21.479Z,43.82
2023-03-29T08:37:47.151Z,44.09
2023-03-29T08:40:20.645Z,44.03
2023-03-29T08:43:00.943Z,43.74
2023-03-29T08:45:51.106Z,44.10
2023-03-29T08:48:24.819Z,43.84
2023-03-29T08:50:53.948Z,43.98
2023-03-29T08:53:28.539Z,44.08
2023-03-29T08:55:57.825Z,43.97
2023-03-29T08:58:28.206Z,43.99
2023-03-29T09:00:56.999Z,43.86
2023-03-29T09:03:33.905Z,43.75
2023-03-29T09:06:09.226Z,43.73
2023-03-29T09:08:39.104Z,43.91
2023-03-29T09:11:29.290Z,43.84
2023-03-29T09:14:25.263Z,44.05
2023-03-29T09:20:12.159Z,44.03
2023-03-29T09:25:53.124Z,44.11
2023-03-29T09:28:31.119Z,44.52
2023-03-29T09:31:05.453Z,44.26
2023-03-29T09:33:58.976Z,44.29
2023-03-29T09:36:50.329Z,44.35
2023-03-29T09:39:16.187Z,44.58
2023-03-29T09:41:47.239Z,44.36
2023-03-29T09:44:29.813Z,44.35
2023-03-29T09:47:01.998Z,44.34
2023-03-29T09:49:31.481Z,44.53
2023-03-29T09:52:01.936Z,44.49
2023-03-29T09:54:27.656Z,44.28
2023-03-29T09:56:53.392Z,44.47
2023-03-29T09:59:20.034Z,44.40
2023-03-29T10:01:45.785Z,44.42
2023-03-29T10:04:12.710Z,44.55
2023-03-29T10:06:49.528Z,44.31
2023-03-29T10:09:19.471Z,44.53
2023-03-29T10:11:47.530Z,44.35
2023-03-29T10:14:31.836Z,44.47
2023-03-29T10:16:57.613Z,44.47
2023-03-29T10:19:33.927Z,44.41
2023-03-29T10:22:02.135Z,44.32
2023-03-29T10:24:27.774Z,44.42
2023-03-29T10:26:57.009Z,44.60
2023-03-29T10:29:24.193Z,44.36
2023-03-29T10:31:50.371Z,44.63
2023-03-29T10:34:17.140Z,44.57
2023-03-29T10:36:46.889Z,44.79
2023-03-29T10:39:14.725Z,44.39
2023-03-29T10:41:40.516Z,44.71
2023-03-29T10:44:22.306Z,44.56
2023-03-29T10:46:47.958Z,44.42
2023-03-29T10:49:18.256Z,44.49
2023-03-29T10:51:45.481Z,44.33
2023-03-29T10:54:13.945Z,44.65
2023-03-29T10:56:44.343Z,45.43
2023-03-29T10:59:33.218Z,45.34
2023-03-29T11:02:25.271Z,44.87
2023-03-29T11:05:17.710Z,44.71
2023-03-29T11:07:55.467Z,44.56
2023-03-29T11:13:28.892Z,44.32
2023-03-29T11:16:34.350Z,44.80
2023-03-29T11:19:25.581Z,44.47
2023-03-29T11:22:13.111Z,44.74
2023-03-29T11:25:19.197Z,44.54
2023-03-29T11:28:09.114Z,44.63
2023-03-29T11:30:48.148Z,44.71
2023-03-29T11:33:38.220Z,44.42
2023-03-29T11:36:10.826Z,44.75
2023-03-29T11:38:50.836Z,44.52
2023-03-29T11:41:21.259Z,44.52
2023-03-29T11:43:51.575Z,44.61
2023-03-29T11:46:20.958Z,44.43
2023-03-29T11:48:52.136Z,44.42
2023-03-29T11:51:25.434Z,44.72
2023-03-29T11:53:58.168Z,44.69
2023-03-29T11:56:38.933Z,44.57
2023-03-29T11:59:12.043Z,44.48
2023-03-29T12:01:42.743Z,44.42
2023-03-29T12:04:14.253Z,45.06
2023-03-29T12:06:55.580Z,45.03
2023-03-29T12:09:34.191Z,45.23
2023-03-29T12:12:09.127Z,45.01
2023-03-29T12:14:48.871Z,45.00
2023-03-29T12:17:19.551Z,45.07
2023-03-29T12:19:52.830Z,44.93
2023-03-29T12:22:18.603Z,45.28
2023-03-29T12:24:46.228Z,45.22
2023-03-29T12:30:16.196Z,44.85
2023-03-29T12:33:21.725Z,45.20
2023-03-29T12:36:05.073Z,44.80
2023-03-29T12:38:31.736Z,44.82
2023-03-29T12:40:59.444Z,45.08
2023-03-29T12:43:28.177Z,44.91
2023-03-29T12:45:57.584Z,45.18
2023-03-29T12:48:26.354Z,44.78
2023-03-29T12:50:56.084Z,44.83
2023-03-29T12:53:24.302Z,44.79
2023-03-29T12:55:56.528Z,44.95
2023-03-29T12:58:46.838Z,44.81
2023-03-29T13:01:30.598Z,44.74
2023-03-29T13:04:12.880Z,44.78
2023-03-29T13:07:03.048Z,44.72
2023-03-29T13:09:35.777Z,44.75
2023-03-29T13:12:22.174Z,44.92
2023-03-29T13:14:52.027Z,44.94
2023-03-29T13:17:57.548Z,44.94
2023-03-29T13:21:03.353Z,44.63
2023-03-29T13:26:18.195Z,44.66
2023-03-29T13:29:15.412Z,44.76
2023-03-29T13:31:47.542Z,44.64
2023-03-29T13:34:38.904Z,44.55
2023-03-29T13:37:15.450Z,44.66
2023-03-29T13:39:49.665Z,44.74
2023-03-29T13:42:24.418Z,44.97
2023-03-29T13:44:50.618Z,44.64
2023-03-29T13:47:39.090Z,44.50
2023-03-29T13:50:11.616Z,44.69
2023-03-29T13:52:46.699Z,44.77
2023-03-29T13:55:18.955Z,44.77
2023-03-29T13:57:54.765Z,44.50
2023-03-29T14:00:24.529Z,44.63
2023-03-29T14:02:53.195Z,44.73
2023-03-29T14:05:23.681Z,44.60
2023-03-29T14:07:52.126Z,44.55
2023-03-29T14:10:18.882Z,44.56
2023-03-29T14:12:44.790Z,44.68
2023-03-29T14:15:19.461Z,44.48
2023-03-29T14:17:45.963Z,44.50
2023-03-29T14:20:14.172Z,44.53
2023-03-29T14:22:41.481Z,44.64
2023-03-29T14:25:13.644Z,44.52
2023-03-29T14:27:40.199Z,44.65
2023-03-29T14:30:25.259Z,44.54
2023-03-29T14:32:51.553Z,44.91
2023-03-29T14:35:17.835Z,44.74
2023-03-29T14:37:44.077Z,44.62
2023-03-29T14:40:26.721Z,44.54
2023-03-29T14:42:52.814Z,44.85
2023-03-29T14:45:22.389Z,44.90
2023-03-29T14:47:48.201Z,44.90
2023-03-29T14:50:25.615Z,44.58
2023-03-29T14:52:52.373Z,45.06
2023-03-29T14:55:22.677Z,45.00
2023-03-29T14:57:49.310Z,44.90
2023-03-29T15:00:21.572Z,44.88
2023-03-29T15:02:50.138Z,45.05
2023-03-29T15:05:33.256Z,44.99
2023-03-29T15:08:00.575Z,45.24
2023-03-29T15:10:26.394Z,45.18
2023-03-29T15:12:52.888Z,44.83
2023-03-29T15:15:19.053Z,44.80
2023-03-29T15:17:51.793Z,45.07
2023-03-29T15:20:24.781Z,45.12
2023-03-29T15:22:55.807Z,44.94
2023-03-29T15:25:21.519Z,44.94
2023-03-29T15:27:50.381Z,44.82
2023-03-29T15:30:17.118Z,44.95
2023-03-29T15:32:42.982Z,44.79
2023-03-29T15:35:22.488Z,45.01
2023-03-29T15:37:49.436Z,44.90
2023-03-29T15:40:16.393Z,45.07
2023-03-29T15:42:42.227Z,45.09
2023-03-29T15:45:16.227Z,45.02
2023-03-29T15:47:41.976Z,45.16
2023-03-29T15:50:08.139Z,44.86
2023-03-29T15:52:33.813Z,45.09
2023-03-29T15:54:59.741Z,45.07
2023-03-29T15:57:25.545Z,45.05
2023-03-29T15:59:51.336Z,45.10
2023-03-29T16:02:20.917Z,44.91
2023-03-29T16:04:46.656Z,45.16
2023-03-29T16:07:14.441Z,45.22
2023-03-29T16:09:40.300Z,45.15
2023-03-29T16:12:06.127Z,45.21
2023-03-29T16:14:31.934Z,45.11
2023-03-29T16:16:59.179Z,45.18
2023-03-29T16:19:25.794Z,45.01
2023-03-29T16:21:52.365Z,45.23
2023-03-29T16:24:20.291Z,44.93
2023-03-29T16:26:46.372Z,44.89
2023-03-29T16:29:12.038Z,45.02
2023-03-29T16:31:38.172Z,44.84
2023-03-29T16:34:04.291Z,45.26
2023-03-29T16:36:32.009Z,45.27
2023-03-29T16:38:57.927Z,44.91
2023-03-29T16:41:23.655Z,45.06
2023-03-29T16:43:49.290Z,45.32
2023-03-29T16:46:15.174Z,45.04
2023-03-29T16:48:41.354Z,45.02
2023-03-29T16:51:07.271Z,45.20
2023-03-29T16:53:33.608Z,45.05
2023-03-29T16:55:59.934Z,45.04
2023-03-29T16:58:26.305Z,44.95
2023-03-29T17:00:52.821Z,45.34
2023-03-29T17:03:20.237Z,45.34
2023-03-29T17:05:47.222Z,45.27
2023-03-29T17:08:12.941Z,45.22
2023-03-29T17:10:39.961Z,45.10
2023-03-29T17:13:05.872Z,45.03
2023-03-29T17:15:31.538Z,45.00
2023-03-29T17:17:57.275Z,45.33
2023-03-29T17:20:22.946Z,45.11
2023-03-29T17:22:51.296Z,45.28
2023-03-29T17:25:17.050Z,45.04
2023-03-29T17:27:42.787Z,45.05
2023-03-29T17:30:08.774Z,45.11
2023-03-29T17:32:35.642Z,45.39
2023-03-29T17:35:01.362Z,45.30
2023-03-29T17:37:27.052Z,45.25
2023-03-29T17:39:53.308Z,45.08
2023-03-29T17:42:18.998Z,45.39
2023-03-29T17:44:44.732Z,45.06
2023-03-29T17:47:10.380Z,45.25
2023-03-29T17:49:36.199Z,45.15
2023-03-29T17:52:01.957Z,45.12
2023-03-29T17:54:27.683Z,45.29
2023-03-29T17:56:53.383Z,45.11
2023-03-29T17:59:19.051Z,45.42
2023-03-29T18:01:44.981Z,45.43
2023-03-29T18:04:10.689Z,45.07
2023-03-29T18:06:36.379Z,45.41
2023-03-29T18:09:02.411Z,45.18
2023-03-29T18:11:28.204Z,45.42
2023-03-29T18:13:57.062Z,45.22
2023-03-29T18:16:23.027Z,45.12
2023-03-29T18:18:48.759Z,45.43
2023-03-29T18:21:15.669Z,45.47
2023-03-29T18:23:44.670Z,45.37
2023-03-29T18:26:11.407Z,45.15
2023-03-29T18:28:37.335Z,45.22
2023-03-29T18:31:03.804Z,45.39
2023-03-29T18:33:34.274Z,45.16
2023-03-29T18:36:06.996Z,45.16
2023-03-29T18:38:34.523Z,45.42
2023-03-29T18:41:02.068Z,45.39
2023-03-29T18:43:28.337Z,45.47
2023-03-29T18:45:54.037Z,45.18
2023-03-29T18:48:19.725Z,45.14
2023-03-29T18:50:46.031Z,45.21
2023-03-29T18:53:12.874Z,45.42
2023-03-29T18:55:41.873Z,45.48
2023-03-29T18:58:08.901Z,45.54
2023-03-29T19:00:35.022Z,45.42
2023-03-29T19:03:01.641Z,45.43
2023-03-29T19:05:27.523Z,45.32
2023-03-29T19:07:53.172Z,45.49
2023-03-29T19:10:18.986Z,45.42
2023-03-29T19:12:44.640Z,45.44
2023-03-29T19:15:11.050Z,45.50
2023-03-29T19:17:36.737Z,45.25
2023-03-29T19:20:05.074Z,45.26
2023-03-29T19:22:33.084Z,45.29
2023-03-29T19:24:58.771Z,45.21
2023-03-29T19:27:24.621Z,45.53
2023-03-29T19:29:50.519Z,45.24
2023-03-29T19:32:16.192Z,45.52
2023-03-29T19:34:41.831Z,45.47
2023-03-29T19:37:07.500Z,45.17
2023-03-29T19:39:33.803Z,45.33
2023-03-29T19:41:59.578Z,45.55
2023-03-29T19:44:25.235Z,45.16
2023-03-29T19:46:51.104Z,45.26
2023-03-29T19:49:16.825Z,45.30
2023-03-29T19:51:42.721Z,45.31
2023-03-29T19:54:10.538Z,45.46
2023-03-29T19:56:36.510Z,45.45
2023-03-29T19:59:02.177Z,45.23
2023-03-29T20:01:31.444Z,45.57
2023-03-29T20:03:57.644Z,45.28
2023-03-29T20:06:23.708Z,45.52
2023-03-29T20:08:49.589Z,45.53
2023-03-29T20:11:15.778Z,45.27
2023-03-29T20:13:43.197Z,45.57
2023-03-29T20:16:11.345Z,45.37
2023-03-29T20:18:37.436Z,45.27
2023-03-29T20:21:04.200Z,45.56
2023-03-29T20:23:30.686Z,45.23
2023-03-29T20:25:56.715Z,45.29
2023-03-29T20:28:22.778Z,45.44
2023-03-29T20:30:50.414Z,45.46
2023-03-29T20:33:17.227Z,45.45
2023-03-29T20:35:45.254Z,45.45
2023-03-29T20:38:11.415Z,45.45
2023-03-29T20:40:37.863Z,45.21
2023-03-29T20:43:03.640Z,45.49
2023-03-29T20:45:33.190Z,45.36
2023-03-29T20:48:03.024Z,45.66
2023-03-29T20:50:28.745Z,45.35
2023-03-29T20:52:55.198Z,45.25
2023-03-29T20:55:21.812Z,45.38
2023-03-29T20:57:50.232Z,45.45
2023-03-29T21:00:16.184Z,45.37
2023-03-29T21:02:41.884Z,45.26
2023-03-29T21:05:08.850Z,45.63
2023-03-29T21:07:34.497Z,45.51
2023-03-29T21:10:00.348Z,45.43
2023-03-29T21:12:26.555Z,45.46
2023-03-29T21:14:52.209Z,45.24
2023-03-29T21:17:17.880Z,45.49
2023-03-29T21:19:43.520Z,45.61
2023-03-29T21:22:12.832Z,45.40
2023-03-29T21:24:38.772Z,45.60
2023-03-29T21:27:04.890Z,45.72
2023-03-29T21:29:30.593Z,45.46
2023-03-29T21:31:56.262Z,45.53
2023-03-29T21:34:22.074Z,45.59
2023-03-29T21:36:47.724Z,45.35
2023-03-29T21:39:13.536Z,45.35
2023-03-29T21:41:39.169Z,45.34
2023-03-29T21:44:04.910Z,45.28
2023-03-29T21:46:30.651Z,45.32
2023-03-29T21:48:56.329Z,45.69
2023-03-29T21:51:21.966Z,45.25
2023-03-29T21:53:47.625Z,45.52
2023-03-29T21:56:14.643Z,45.52
2023-03-29T21:58:40.756Z,45.42
2023-03-29T22:01:09.024Z,45.58
2023-03-29T22:03:36.606Z,45.36
2023-03-29T22:06:07.182Z,45.60
2023-03-29T22:08:32.838Z,45.44
2023-03-29T22:11:07.980Z,45.39
2023-03-29T22:13:34.046Z,45.60
2023-03-29T22:16:02.730Z,45.62
2023-03-29T22:18:41.367Z,45.65
2023-03-29T22:21:14.968Z,45.61
2023-03-29T22:23:41.863Z,45.50
2023-03-29T22:26:09.125Z,45.32
2023-03-29T22:28:36.261Z,45.66
2023-03-29T22:31:03.877Z,45.52
2023-03-29T22:33:31.200Z,45.30
2023-03-29T22:35:56.925Z,45.43
2023-03-29T22:38:22.582Z,45.46
2023-03-29T22:40:48.222Z,45.35
2023-03-29T22:43:13.857Z,45.54
2023-03-29T22:45:39.769Z,45.45
2023-03-29T22:48:05.855Z,45.66
2023-03-29T22:50:31.736Z,45.57
2023-03-29T22:52:57.393Z,45.31
2023-03-29T22:55:23.082Z,45.60
2023-03-29T22:57:48.773Z,45.42
2023-03-29T23:00:14.481Z,45.29
2023-03-29T23:02:40.339Z,45.47
2023-03-29T23:05:06.749Z,45.34
2023-03-29T23:07:35.543Z,45.55
2023-03-29T23:10:03.830Z,45.52
2023-03-29T23:12:30.270Z,45.40
2023-03-29T23:14:56.042Z,45.32
2023-03-29T23:17:21.692Z,45.36
2023-03-29T23:19:47.341Z,45.43
2023-03-29T23:22:13.495Z,45.59
2023-03-29T23:24:39.465Z,45.64
2023-03-29T23:27:05.291Z,45.38
2023-03-29T23:29:30.935Z,45.55
2023-03-29T23:31:56.627Z,45.53
2023-03-29T23:34:22.325Z,45.41
2023-03-29T23:36:48.097Z,45.63
2023-03-29T23:39:13.735Z,45.67
2023-03-29T23:41:39.485Z,45.38
2023-03-29T23:44:05.760Z,45.35
2023-03-29T23:46:31.801Z,45.46
2023-03-29T23:48:57.759Z,45.58
2023-03-29T23:51:27.232Z,45.56
2023-03-29T23:53:53.872Z,45.55
2023-03-29T23:56:20.810Z,45.61
2023-03-29T23:58:46.666Z,45.41
